createdAt,value
2018-03-14T00:01:22.955Z,98406.86
2018-03-14T00:03:50.366Z,98399.33
2018-03-14T00:06:17.813Z,98402.63
2018-03-14T00:08:45.230Z,98405.20
2018-03-14T00:11:12.656Z,98403.09
2018-03-14T00:13:40.083Z,98403.56
2018-03-14T00:16:07.525Z,98414.00
2018-03-14T00:18:34.956Z,98409.39
2018-03-14T00:21:02.390Z,98411.93
2018-03-14T00:23:29.836Z,98409.09
2018-03-14T00:25:57.251Z,98414.49
2018-03-14T00:28:24.762Z,98417.03
2018-03-14T00:30:52.197Z,98416.09
2018-03-14T00:33:19.636Z,98415.82
2018-03-14T00:35:47.067Z,98416.57
2018-03-14T00:38:14.498Z,98412.02
2018-03-14T00:40:58.992Z,98421.58
2018-03-14T00:43:26.436Z,98418.20
2018-03-14T00:45:53.871Z,98418.23
2018-03-14T00:48:21.304Z,98418.66
2018-03-14T00:50:48.727Z,98418.70
2018-03-14T00:53:16.165Z,98417.25
2018-03-14T00:55:43.588Z,98420.48
2018-03-14T00:58:11.075Z,98422.84
2018-03-14T01:00:38.582Z,98423.63
2018-03-14T01:03:06.046Z,98428.62
2018-03-14T01:05:33.477Z,98435.05
2018-03-14T01:08:00.931Z,98433.05
2018-03-14T01:10:28.411Z,98428.44
2018-03-14T01:12:55.860Z,98423.02
2018-03-14T01:15:23.334Z,98426.98
2018-03-14T01:18:07.353Z,98422.89
2018-03-14T01:20:34.796Z,98421.86
2018-03-14T01:23:02.223Z,98423.69
2018-03-14T01:25:29.768Z,98428.24
2018-03-14T01:27:57.518Z,98429.06
2018-03-14T01:30:24.943Z,98423.95
2018-03-14T01:32:52.380Z,98422.19
2018-03-14T01:35:19.891Z,98422.41
2018-03-14T01:37:47.331Z,98427.25
2018-03-14T01:40:14.817Z,98432.45
2018-03-14T01:42:42.258Z,98430.27
2018-03-14T01:45:09.715Z,98434.55
2018-03-14T01:47:37.276Z,98434.84
2018-03-14T01:50:04.712Z,98431.92
2018-03-14T01:52:32.146Z,98437.33
2018-03-14T01:54:59.860Z,98429.88
2018-03-14T01:57:27.312Z,98438.02
2018-03-14T01:59:54.772Z,98437.34
2018-03-14T02:02:22.203Z,98437.00
2018-03-14T02:04:49.646Z,98443.19
2018-03-14T02:07:17.071Z,98440.50
2018-03-14T02:09:44.511Z,98446.22
2018-03-14T02:12:11.983Z,98442.30
2018-03-14T02:14:39.431Z,98451.48
2018-03-14T02:17:07.076Z,98437.30
2018-03-14T02:19:34.688Z,98443.50
2018-03-14T02:22:02.184Z,98452.23
2018-03-14T02:24:29.946Z,98451.86
2018-03-14T02:27:00.829Z,98452.75
2018-03-14T02:29:28.254Z,98449.80
2018-03-14T02:31:55.955Z,98446.17
2018-03-14T02:34:23.696Z,98446.61
2018-03-14T02:37:01.852Z,98449.79
2018-03-14T02:39:29.389Z,98449.31
2018-03-14T02:41:56.845Z,98450.69
2018-03-14T02:44:24.363Z,98444.92
2018-03-14T02:46:51.847Z,98450.25
2018-03-14T02:49:19.589Z,98454.00
2018-03-14T02:51:47.043Z,98454.80
2018-03-14T02:54:14.501Z,98452.63
2018-03-14T02:56:41.927Z,98455.00
2018-03-14T02:59:09.434Z,98455.58
2018-03-14T03:01:36.988Z,98455.69
2018-03-14T03:04:04.437Z,98450.02
2018-03-14T03:06:31.898Z,98451.45
2018-03-14T03:08:59.316Z,98461.16
2018-03-14T03:11:26.751Z,98460.16
2018-03-14T03:13:54.179Z,98460.39
2018-03-14T03:16:21.919Z,98464.38
2018-03-14T03:18:49.392Z,98468.03
2018-03-14T03:21:16.849Z,98463.92
2018-03-14T03:23:44.296Z,98458.72
2018-03-14T03:26:11.770Z,98468.36
2018-03-14T03:28:39.238Z,98466.78
2018-03-14T03:31:06.700Z,98462.31
2018-03-14T03:33:34.127Z,98461.75
2018-03-14T03:36:01.567Z,98461.82
2018-03-14T03:38:29.067Z,98464.13
2018-03-14T03:40:56.803Z,98466.36
2018-03-14T03:43:24.292Z,98460.42
2018-03-14T03:45:51.834Z,98464.81
2018-03-14T03:48:19.811Z,98464.98
2018-03-14T03:50:47.297Z,98465.91
2018-03-14T03:53:14.717Z,98467.95
2018-03-14T03:55:45.060Z,98463.13
2018-03-14T03:58:12.498Z,98465.41
2018-03-14T04:00:40.214Z,98465.69
2018-03-14T04:03:07.630Z,98469.65
2018-03-14T04:05:35.083Z,98474.02
2018-03-14T04:08:02.526Z,98469.52
2018-03-14T04:10:29.939Z,98471.03
2018-03-14T04:12:58.397Z,98466.66
2018-03-14T04:15:25.896Z,98470.34
2018-03-14T04:17:56.161Z,98465.49
2018-03-14T04:20:23.582Z,98474.05
2018-03-14T04:22:51.015Z,98473.17
2018-03-14T04:25:18.447Z,98480.16
2018-03-14T04:27:45.871Z,98478.34
2018-03-14T04:30:13.343Z,98474.56
2018-03-14T04:32:40.806Z,98478.50
2018-03-14T04:35:08.263Z,98479.81
2018-03-14T04:37:35.697Z,98480.20
2018-03-14T04:40:03.115Z,98484.29
2018-03-14T04:42:30.610Z,98481.99
2018-03-14T04:44:58.023Z,98483.19
2018-03-14T04:47:25.451Z,98479.73
2018-03-14T04:49:52.862Z,98477.09
2018-03-14T04:52:20.468Z,98478.94
2018-03-14T04:54:47.930Z,98475.79
2018-03-14T04:57:15.696Z,98481.19
2018-03-14T04:59:43.427Z,98480.45
2018-03-14T05:02:10.851Z,98471.85
2018-03-14T05:04:38.267Z,98478.22
2018-03-14T05:07:05.687Z,98476.39
2018-03-14T05:09:33.105Z,98473.12
2018-03-14T05:12:00.537Z,98471.13
2018-03-14T05:14:27.993Z,98473.25
2018-03-14T05:19:48.331Z,98474.98
2018-03-14T05:22:15.774Z,98478.39
2018-03-14T05:24:43.382Z,98484.56
2018-03-14T05:27:10.799Z,98481.43
2018-03-14T05:29:38.244Z,98476.61
2018-03-14T05:32:08.017Z,98485.20
2018-03-14T05:34:35.453Z,98486.41
2018-03-14T05:37:03.355Z,98489.58
2018-03-14T05:39:30.830Z,98488.09
2018-03-14T05:41:58.249Z,98482.45
2018-03-14T05:44:25.776Z,98488.48
2018-03-14T05:46:54.654Z,98483.23
2018-03-14T05:49:22.101Z,98487.06
2018-03-14T05:51:49.544Z,98491.30
2018-03-14T05:54:17.027Z,98491.94
2018-03-14T05:56:44.679Z,98487.39
2018-03-14T05:59:12.123Z,98492.92
2018-03-14T06:01:39.533Z,98486.72
2018-03-14T06:04:06.963Z,98481.59
2018-03-14T06:06:34.402Z,98482.02
2018-03-14T06:09:01.860Z,98488.64
2018-03-14T06:11:29.282Z,98486.07
2018-03-14T06:13:56.723Z,98482.75
2018-03-14T06:16:24.224Z,98482.86
2018-03-14T06:18:51.624Z,98480.52
2018-03-14T06:21:19.975Z,98488.59
2018-03-14T06:23:47.451Z,98480.81
2018-03-14T06:26:14.893Z,98491.89
2018-03-14T06:28:42.354Z,98493.50
2018-03-14T06:31:09.811Z,98482.30
2018-03-14T06:33:37.271Z,98495.91
2018-03-14T06:36:07.449Z,98489.77
2018-03-14T06:38:34.951Z,98498.77
2018-03-14T06:41:02.412Z,98509.09
2018-03-14T06:43:29.871Z,98501.64
2018-03-14T06:45:59.480Z,98505.28
2018-03-14T06:48:26.927Z,98508.59
2018-03-14T06:50:54.386Z,98507.33
2018-03-14T06:53:21.847Z,98506.66
2018-03-14T06:55:49.309Z,98512.39
2018-03-14T06:58:28.447Z,98512.98
2018-03-14T07:01:07.454Z,98517.41
2018-03-14T07:03:46.488Z,98516.67
2018-03-14T07:06:15.240Z,98514.16
2018-03-14T07:08:42.655Z,98510.01
2018-03-14T07:11:10.097Z,98509.59
2018-03-14T07:13:37.559Z,98508.56
2018-03-14T07:16:05.013Z,98512.38
2018-03-14T07:18:32.459Z,98510.83
2018-03-14T07:20:59.923Z,98501.58
2018-03-14T07:23:27.373Z,98503.53
2018-03-14T07:25:54.831Z,98508.11
2018-03-14T07:28:22.244Z,98505.02
2018-03-14T07:30:49.677Z,98506.90
2018-03-14T07:33:17.136Z,98509.81
2018-03-14T07:35:44.593Z,98515.37
2018-03-14T07:38:12.053Z,98505.55
2018-03-14T07:40:39.515Z,98510.83
2018-03-14T07:43:07.345Z,98505.41
2018-03-14T07:45:34.800Z,98511.53
2018-03-14T07:48:02.259Z,98511.38
2018-03-14T07:50:29.716Z,98510.93
2018-03-14T07:52:57.174Z,98505.51
2018-03-14T07:55:24.631Z,98510.34
2018-03-14T07:57:52.094Z,98511.33
2018-03-14T08:00:19.558Z,98513.34
2018-03-14T08:02:49.462Z,98509.41
2018-03-14T08:05:16.919Z,98508.58
2018-03-14T08:07:44.431Z,98512.20
2018-03-14T08:10:11.840Z,98515.20
2018-03-14T08:12:39.295Z,98514.16
2018-03-14T08:15:10.441Z,98514.63
2018-03-14T08:17:37.900Z,98521.33
2018-03-14T08:20:05.353Z,98524.16
2018-03-14T08:22:32.814Z,98518.15
2018-03-14T08:25:00.335Z,98508.74
2018-03-14T08:27:27.734Z,98507.27
2018-03-14T08:29:55.197Z,98504.30
2018-03-14T08:32:22.642Z,98505.70
2018-03-14T08:34:50.178Z,98509.00
2018-03-14T08:37:17.606Z,98492.73
2018-03-14T08:39:45.036Z,98494.40
2018-03-14T08:42:12.479Z,98488.69
2018-03-14T08:44:39.932Z,98494.16
2018-03-14T08:47:07.391Z,98495.05
2018-03-14T08:49:34.847Z,98491.09
2018-03-14T08:52:02.306Z,98490.47
2018-03-14T08:54:29.727Z,98493.95
2018-03-14T08:56:57.162Z,98500.14
2018-03-14T08:59:24.608Z,98488.09
2018-03-14T09:01:54.763Z,98492.61
2018-03-14T09:04:22.271Z,98492.56
2018-03-14T09:06:49.755Z,98496.45
2018-03-14T09:09:18.201Z,98498.08
2018-03-14T09:11:45.663Z,98499.34
2018-03-14T09:14:13.111Z,98494.75
2018-03-14T09:16:40.570Z,98488.59
2018-03-14T09:19:08.029Z,98492.33
2018-03-14T09:21:36.883Z,98486.53
2018-03-14T09:24:04.384Z,98489.28
2018-03-14T09:26:31.839Z,98484.05
2018-03-14T09:28:59.306Z,98486.81
2018-03-14T09:31:26.783Z,98484.03
2018-03-14T09:33:57.934Z,98484.23
2018-03-14T09:36:25.406Z,98480.30
2018-03-14T09:38:52.850Z,98483.05
2018-03-14T09:41:20.306Z,98486.16
2018-03-14T09:43:47.765Z,98485.14
2018-03-14T09:46:15.222Z,98480.64
2018-03-14T09:48:42.681Z,98480.09
2018-03-14T09:51:10.127Z,98474.06
2018-03-14T09:53:37.587Z,98475.70
2018-03-14T09:56:05.036Z,98471.73
2018-03-14T09:58:32.510Z,98470.29
2018-03-14T10:00:59.964Z,98473.50
2018-03-14T10:03:27.488Z,98467.62
2018-03-14T10:05:54.954Z,98466.63
2018-03-14T10:08:22.404Z,98470.30
2018-03-14T10:10:49.811Z,98467.69
2018-03-14T10:13:17.239Z,98464.67
2018-03-14T10:15:44.692Z,98466.78
2018-03-14T10:18:12.191Z,98459.76
2018-03-14T10:20:39.622Z,98454.84
2018-03-14T10:23:08.669Z,98452.55
2018-03-14T10:25:36.801Z,98457.86
2018-03-14T10:28:04.217Z,98459.95
2018-03-14T10:30:31.676Z,98464.28
2018-03-14T10:32:59.104Z,98455.20
2018-03-14T10:35:26.534Z,98453.23
2018-03-14T10:37:53.965Z,98453.08
2018-03-14T10:40:21.448Z,98450.42
2018-03-14T10:42:52.695Z,98456.36
2018-03-14T10:45:20.116Z,98443.79
2018-03-14T10:47:47.567Z,98448.00
2018-03-14T10:50:15.024Z,98444.06
2018-03-14T10:52:42.485Z,98447.89
2018-03-14T10:55:09.942Z,98441.30
2018-03-14T10:57:37.400Z,98443.59
2018-03-14T11:00:05.698Z,98441.67
2018-03-14T11:02:33.247Z,98433.56
2018-03-14T11:05:00.692Z,98428.23
2018-03-14T11:07:28.096Z,98429.86
2018-03-14T11:09:55.547Z,98423.83
2018-03-14T11:12:23.002Z,98420.83
2018-03-14T11:14:50.523Z,98412.97
2018-03-14T11:17:17.986Z,98417.53
2018-03-14T11:19:45.438Z,98418.33
2018-03-14T11:22:12.899Z,98414.36
2018-03-14T11:24:40.353Z,98411.95
2018-03-14T11:27:07.816Z,98406.91
2018-03-14T11:29:35.270Z,98412.18
2018-03-14T11:32:02.740Z,98405.86
2018-03-14T11:34:30.187Z,98402.23
2018-03-14T11:36:57.644Z,98403.84
2018-03-14T11:39:25.277Z,98405.47
2018-03-14T11:41:53.174Z,98390.38
2018-03-14T11:44:20.631Z,98385.80
2018-03-14T11:46:48.089Z,98378.97
2018-03-14T11:49:15.549Z,98375.92
2018-03-14T11:51:43.005Z,98375.46
2018-03-14T11:54:10.463Z,98372.70
2018-03-14T11:56:37.920Z,98377.27
2018-03-14T11:59:05.380Z,98371.78
2018-03-14T12:01:32.837Z,98370.58
2018-03-14T12:04:05.530Z,98371.09
2018-03-14T12:06:33.005Z,98364.00
2018-03-14T12:09:00.432Z,98356.94
2018-03-14T12:11:31.598Z,98354.00
2018-03-14T12:13:59.038Z,98335.32
2018-03-14T12:16:26.492Z,98336.39
2018-03-14T12:18:53.894Z,98331.47
2018-03-14T12:21:21.331Z,98335.06
2018-03-14T12:23:48.797Z,98335.00
2018-03-14T12:26:16.334Z,98326.07
2018-03-14T12:28:43.793Z,98326.39
2018-03-14T12:31:11.243Z,98314.67
2018-03-14T12:33:38.696Z,98307.36
2018-03-14T12:36:06.156Z,98303.96
2018-03-14T12:38:33.612Z,98304.59
2018-03-14T12:41:01.083Z,98294.89
2018-03-14T12:43:31.812Z,98289.69
2018-03-14T12:45:59.296Z,98278.80
2018-03-14T12:48:26.729Z,98276.45
2018-03-14T12:50:54.203Z,98266.80
2018-03-14T12:53:21.736Z,98256.47
2018-03-14T12:55:52.269Z,98245.63
2018-03-14T12:58:19.726Z,98251.05
2018-03-14T13:00:47.182Z,98258.09
2018-03-14T13:03:14.721Z,98245.55
2018-03-14T13:05:42.120Z,98243.72
2018-03-14T13:08:12.244Z,98236.89
2018-03-14T13:10:39.778Z,98242.41
2018-03-14T13:13:07.236Z,98243.23
2018-03-14T13:15:34.694Z,98235.36
2018-03-14T13:18:02.165Z,98234.32
2018-03-14T13:20:29.612Z,98236.08
2018-03-14T13:22:57.068Z,98230.66
2018-03-14T13:25:24.527Z,98235.63
2018-03-14T13:27:51.985Z,98228.03
2018-03-14T13:30:19.444Z,98226.20
2018-03-14T13:32:48.507Z,98221.49
2018-03-14T13:35:16.816Z,98222.36
2018-03-14T13:37:44.279Z,98216.70
2018-03-14T13:40:11.737Z,98214.55
2018-03-14T13:42:39.187Z,98212.40
2018-03-14T13:45:06.647Z,98206.77
2018-03-14T13:47:34.123Z,98213.24
2018-03-14T13:50:01.564Z,98209.23
2018-03-14T13:52:29.020Z,98206.30
2018-03-14T13:54:58.842Z,98199.75
2018-03-14T13:57:26.393Z,98196.02
2018-03-14T13:59:53.849Z,98193.92
2018-03-14T14:02:21.308Z,98190.09
2018-03-14T14:04:48.783Z,98182.55
2018-03-14T14:07:16.225Z,98175.36
2018-03-14T14:09:43.698Z,98166.36
2018-03-14T14:12:11.132Z,98159.50
2018-03-14T14:14:38.598Z,98156.58
2018-03-14T14:17:06.056Z,98154.19
2018-03-14T14:19:33.820Z,98144.86
2018-03-14T14:22:01.246Z,98144.72
2018-03-14T14:24:28.741Z,98138.39
2018-03-14T14:26:56.203Z,98131.11
2018-03-14T14:29:23.684Z,98131.88
2018-03-14T14:31:51.109Z,98126.70
2018-03-14T14:34:18.567Z,98121.70
2018-03-14T14:36:46.025Z,98114.70
2018-03-14T14:39:13.483Z,98106.11
2018-03-14T14:41:40.943Z,98105.06
2018-03-14T14:44:08.414Z,98102.32
2018-03-14T14:46:36.033Z,98094.81
2018-03-14T14:49:03.623Z,98092.55
2018-03-14T14:51:34.053Z,98088.30
2018-03-14T14:54:01.583Z,98089.61
2018-03-14T14:56:29.069Z,98080.13
2018-03-14T14:58:56.524Z,98078.97
2018-03-14T15:01:23.985Z,98072.25
2018-03-14T15:03:52.671Z,98076.09
2018-03-14T15:06:20.144Z,98073.35
2018-03-14T15:08:48.070Z,98066.70
2018-03-14T15:11:15.574Z,98066.25
2018-03-14T15:13:46.801Z,98067.38
2018-03-14T15:16:14.251Z,98058.77
2018-03-14T15:18:41.716Z,98056.74
2018-03-14T15:21:09.230Z,98053.48
2018-03-14T15:23:36.644Z,98048.08
2018-03-14T15:26:04.094Z,98043.16
2018-03-14T15:28:31.553Z,98034.72
2018-03-14T15:31:03.647Z,98030.03
2018-03-14T15:33:31.388Z,98027.91
2018-03-14T15:36:00.689Z,98023.22
2018-03-14T15:38:30.786Z,98020.46
2018-03-14T15:41:06.401Z,98015.62
2018-03-14T15:43:33.824Z,98008.05
2018-03-14T15:46:01.273Z,98012.63
2018-03-14T15:48:29.067Z,98009.41
2018-03-14T15:50:56.915Z,98014.67
2018-03-14T15:53:25.004Z,98009.26
2018-03-14T15:55:52.455Z,98011.65
2018-03-14T15:58:20.151Z,98004.17
2018-03-14T16:00:47.579Z,98002.65
2018-03-14T16:03:15.128Z,98005.16
2018-03-14T16:05:42.680Z,98001.78
2018-03-14T16:08:10.102Z,97999.92
2018-03-14T16:10:37.531Z,97993.77
2018-03-14T16:13:04.987Z,98004.09
2018-03-14T16:15:32.428Z,98000.79
2018-03-14T16:17:59.871Z,98004.27
2018-03-14T16:20:27.299Z,98007.98
2018-03-14T16:22:54.883Z,98002.04
2018-03-14T16:25:22.300Z,98006.19
2018-03-14T16:27:49.732Z,98006.47
2018-03-14T16:30:17.164Z,98009.83
2018-03-14T16:32:44.599Z,98011.30
2018-03-14T16:35:12.017Z,98013.13
2018-03-14T16:37:39.436Z,98012.84
2018-03-14T16:40:06.848Z,98008.98
2018-03-14T16:42:34.291Z,98008.90
2018-03-14T16:45:01.908Z,98009.88
2018-03-14T16:47:29.356Z,98005.72
2018-03-14T16:49:56.773Z,98003.45
2018-03-14T16:52:24.206Z,98003.66
2018-03-14T16:54:51.625Z,98012.93
2018-03-14T16:57:19.058Z,98007.19
2018-03-14T16:59:46.488Z,98010.28
2018-03-14T17:02:13.903Z,98002.88
2018-03-14T17:04:41.328Z,98003.27
2018-03-14T17:07:14.749Z,98005.11
2018-03-14T17:09:42.229Z,98001.70
2018-03-14T17:12:09.658Z,98001.56
2018-03-14T17:14:37.099Z,97995.39
2018-03-14T17:17:04.505Z,97991.33
2018-03-14T17:19:31.914Z,97987.64
2018-03-14T17:22:02.723Z,97994.98
2018-03-14T17:24:30.152Z,97989.94
2018-03-14T17:26:57.687Z,97989.55
2018-03-14T17:29:25.139Z,97991.67
2018-03-14T17:31:52.539Z,97991.05
2018-03-14T17:34:19.976Z,97991.69
2018-03-14T17:36:47.386Z,97995.53
2018-03-14T17:39:14.844Z,97990.74
2018-03-14T17:41:42.252Z,97985.83
2018-03-14T17:44:09.693Z,97988.86
2018-03-14T17:46:37.114Z,97987.64
2018-03-14T17:49:04.557Z,97983.45
2018-03-14T17:51:32.561Z,97983.45
2018-03-14T17:53:59.989Z,97985.52
2018-03-14T17:56:27.412Z,97981.05
2018-03-14T17:58:54.848Z,97982.66
2018-03-14T18:01:22.272Z,97988.81
2018-03-14T18:03:49.695Z,97978.26
2018-03-14T18:06:17.116Z,97970.98
2018-03-14T18:08:44.570Z,97974.30
2018-03-14T18:11:11.990Z,97969.03
2018-03-14T18:13:39.404Z,97975.70
2018-03-14T18:16:06.865Z,97969.21
2018-03-14T18:18:34.307Z,97963.77
2018-03-14T18:21:02.869Z,97957.17
2018-03-14T18:23:30.457Z,97954.99
2018-03-14T18:25:57.887Z,97946.83
2018-03-14T18:28:25.516Z,97955.96
2018-03-14T18:30:52.937Z,97954.88
2018-03-14T18:33:20.384Z,97951.03
2018-03-14T18:35:47.839Z,97959.27
2018-03-14T18:38:15.260Z,97966.06
2018-03-14T18:40:42.679Z,97957.66
2018-03-14T18:43:10.179Z,97956.70
2018-03-14T18:45:37.606Z,97948.58
2018-03-14T18:48:05.088Z,97949.12
2018-03-14T18:50:32.499Z,97944.83
2018-03-14T18:52:59.961Z,97940.19
2018-03-14T18:55:27.395Z,97932.56
2018-03-14T18:57:54.831Z,97934.97
2018-03-14T19:00:22.298Z,97936.77
2018-03-14T19:02:49.705Z,97936.69
2018-03-14T19:05:17.221Z,97939.55
2018-03-14T19:07:44.641Z,97934.74
2018-03-14T19:10:12.063Z,97935.52
2018-03-14T19:12:39.475Z,97927.93
2018-03-14T19:15:06.894Z,97921.62
2018-03-14T19:17:34.305Z,97918.80
2018-03-14T19:20:01.719Z,97916.36
2018-03-14T19:22:29.464Z,97910.72
2018-03-14T19:24:56.883Z,97909.53
2018-03-14T19:27:24.311Z,97906.45
2018-03-14T19:29:51.817Z,97906.63
2018-03-14T19:32:19.270Z,97904.31
2018-03-14T19:34:46.680Z,97899.51
2018-03-14T19:37:14.192Z,97897.62
2018-03-14T19:39:41.687Z,97902.50
2018-03-14T19:42:09.120Z,97900.23
2018-03-14T19:44:36.556Z,97899.27
2018-03-14T19:47:03.984Z,97893.70
2018-03-14T19:49:31.407Z,97888.73
2018-03-14T19:51:58.945Z,97885.20
2018-03-14T19:54:26.374Z,97891.67
2018-03-14T19:56:53.827Z,97887.42
2018-03-14T19:59:21.264Z,97884.98
2018-03-14T20:01:48.690Z,97884.56
2018-03-14T20:04:16.133Z,97880.95
2018-03-14T20:06:43.570Z,97880.06
2018-03-14T20:09:10.993Z,97879.65
2018-03-14T20:11:38.415Z,97878.20
2018-03-14T20:14:05.834Z,97877.03
2018-03-14T20:16:33.262Z,97868.96
2018-03-14T20:19:00.696Z,97874.27
2018-03-14T20:21:28.135Z,97867.94
2018-03-14T20:23:55.949Z,97860.58
2018-03-14T20:26:23.385Z,97864.45
2018-03-14T20:28:50.802Z,97871.52
2018-03-14T20:31:20.213Z,97869.67
2018-03-14T20:33:47.835Z,97866.55
2018-03-14T20:36:15.283Z,97864.02
2018-03-14T20:38:42.754Z,97865.86
2018-03-14T20:41:10.185Z,97866.01
2018-03-14T20:43:37.658Z,97860.76
2018-03-14T20:46:05.099Z,97857.55
2018-03-14T20:48:32.567Z,97858.88
2018-03-14T20:51:00.055Z,97855.94
2018-03-14T20:53:27.532Z,97849.56
2018-03-14T20:55:54.988Z,97842.93
2018-03-14T20:58:22.468Z,97846.50
2018-03-14T21:00:50.212Z,97848.12
2018-03-14T21:03:17.700Z,97847.55
2018-03-14T21:05:45.132Z,97852.39
2018-03-14T21:08:37.694Z,97844.02
2018-03-14T21:11:05.216Z,97846.95
2018-03-14T21:13:32.696Z,97848.81
2018-03-14T21:16:01.711Z,97846.78
2018-03-14T21:18:29.158Z,97836.87
2018-03-14T21:21:16.778Z,97838.08
2018-03-14T21:23:44.197Z,97833.08
2018-03-14T21:26:11.620Z,97838.23
2018-03-14T21:28:39.055Z,97841.38
2018-03-14T21:31:06.575Z,97828.64
2018-03-14T21:33:33.915Z,97835.21
2018-03-14T21:36:01.348Z,97821.98
2018-03-14T21:38:28.787Z,97815.63
2018-03-14T21:40:58.113Z,97813.59
2018-03-14T21:43:25.526Z,97813.68
2018-03-14T21:45:52.950Z,97814.70
2018-03-14T21:48:20.358Z,97809.58
2018-03-14T21:50:47.776Z,97798.54
2018-03-14T21:53:15.190Z,97795.57
2018-03-14T21:55:42.607Z,97784.72
2018-03-14T21:58:10.019Z,97790.87
2018-03-14T22:02:40.479Z,97780.77
2018-03-14T22:05:07.889Z,97768.98
2018-03-14T22:07:35.303Z,97766.53
2018-03-14T22:10:02.714Z,97766.37
2018-03-14T22:12:30.125Z,97771.03
2018-03-14T22:14:57.544Z,97771.96
2018-03-14T22:17:24.959Z,97762.91
2018-03-14T22:19:52.388Z,97757.67
2018-03-14T22:22:19.778Z,97750.63
2018-03-14T22:24:47.197Z,97752.78
2018-03-14T22:27:14.674Z,97749.30
2018-03-14T22:29:42.123Z,97742.19
2018-03-14T22:32:09.525Z,97737.59
2018-03-14T22:34:36.942Z,97738.82
2018-03-14T22:37:04.395Z,97737.44
2018-03-14T22:39:31.772Z,97734.22
2018-03-14T22:41:59.183Z,97728.26
2018-03-14T22:44:26.593Z,97715.76
2018-03-14T22:46:53.997Z,97717.81
2018-03-14T22:49:21.417Z,97711.23
2018-03-14T22:51:48.826Z,97707.78
2018-03-14T22:54:16.248Z,97706.09
2018-03-14T22:56:43.650Z,97708.85
2018-03-14T22:59:11.049Z,97707.48
2018-03-14T23:01:38.470Z,97706.09
2018-03-14T23:04:05.874Z,97704.56
2018-03-14T23:06:33.287Z,97696.39
2018-03-14T23:09:01.183Z,97692.88
2018-03-14T23:11:28.595Z,97688.03
2018-03-14T23:13:55.999Z,97681.31
2018-03-14T23:16:23.411Z,97672.45
2018-03-14T23:18:50.822Z,97670.02
2018-03-14T23:21:18.242Z,97668.48
2018-03-14T23:23:45.686Z,97672.70
2018-03-14T23:26:13.094Z,97676.06
2018-03-14T23:28:40.502Z,97680.91
2018-03-14T23:31:07.928Z,97667.61
2018-03-14T23:33:35.371Z,97663.63
2018-03-14T23:36:02.782Z,97657.29
2018-03-14T23:38:30.199Z,97652.55
2018-03-14T23:40:57.610Z,97650.91
2018-03-14T23:43:25.014Z,97647.73
2018-03-14T23:45:52.429Z,97647.38
2018-03-14T23:48:19.842Z,97639.05
2018-03-14T23:50:47.266Z,97633.69
2018-03-14T23:53:14.670Z,97637.02
2018-03-14T23:55:42.094Z,97633.27
2018-03-14T23:58:09.505Z,97636.34
